Time;durP1;ratioP1;P1;durP2;ratioP2;P2;SDS_P1;SDS_P2;PMS_P1;PMS_P2;Temp;Humidity;BMP_temperature;BMP_pressure;BME280_temperature;BME280_humidity;BME280_pressure;Samples;Min_cycle;Max_cycle;Signal;HPM_P1;HPM_P2
2023/12/22 00:00:08;;;;;;;6.90;3.50;;;;;;;16.15;31.84;98093.72;105299;1258;60480;-58
2023/12/22 00:02:36;;;;;;;11.80;4.40;;;;;;;16.27;31.80;98084.90;105619;1255;60333;-54
2023/12/22 00:05:07;;;;;;;11.60;4.40;;;;;;;16.32;31.68;98083.55;105281;1253;64987;-56
2023/12/22 00:07:34;;;;;;;15.00;9.30;;;;;;;16.34;31.60;98079.41;105705;1258;60356;-54
2023/12/22 00:10:02;;;;;;;14.70;4.40;;;;;;;16.34;31.62;98073.90;105372;1259;62513;-55
2023/12/22 00:12:30;;;;;;;15.20;6.10;;;;;;;16.39;31.57;98068.64;105315;1254;60998;-56
2023/12/22 00:14:58;;;;;;;14.20;9.00;;;;;;;16.35;31.53;98063.73;105347;1253;60431;-55
2023/12/22 00:17:25;;;;;;;8.60;3.70;;;;;;;16.33;31.38;98057.26;105697;1253;64913;-54
2023/12/22 00:19:55;;;;;;;9.30;4.10;;;;;;;16.31;31.39;98046.98;105833;1253;61387;-56
2023/12/22 00:22:23;;;;;;;9.00;5.20;;;;;;;16.23;31.53;98045.24;105840;1253;63676;-55
2023/12/22 00:24:51;;;;;;;8.40;4.10;;;;;;;16.15;31.66;98042.98;105908;1255;60542;-55
2023/12/22 00:27:18;;;;;;;16.60;9.50;;;;;;;16.08;31.72;98038.34;105403;1254;60341;-55
2023/12/22 00:29:46;;;;;;;8.50;3.70;;;;;;;16.03;31.85;98035.54;105402;1253;74887;-56
2023/12/22 00:32:13;;;;;;;6.20;2.50;;;;;;;16.08;31.75;98027.58;105284;1253;60481;-56
2023/12/22 00:34:41;;;;;;;8.70;3.70;;;;;;;16.14;31.60;98024.95;105263;1258;63879;-56
2023/12/22 00:37:09;;;;;;;13.80;8.60;;;;;;;16.18;31.77;98025.13;105326;1256;60567;-56
2023/12/22 00:39:36;;;;;;;10.40;4.70;;;;;;;16.22;31.69;98025.09;105304;1258;60380;-56
2023/12/22 00:42:04;;;;;;;11.40;5.20;;;;;;;16.27;31.56;98022.60;105643;1258;64970;-56
2023/12/22 00:44:32;;;;;;;22.60;6.00;;;;;;;16.28;31.38;98021.26;105649;1253;60475;-55
2023/12/22 00:46:59;;;;;;;10.30;4.20;;;;;;;16.28;31.44;98014.62;105798;1258;62447;-56
2023/12/22 00:49:27;;;;;;;9.70;4.50;;;;;;;16.30;31.50;98006.20;105297;1255;60557;-57
2023/12/22 00:51:55;;;;;;;16.50;10.80;;;;;;;16.32;31.30;98003.78;105336;1257;60252;-53
2023/12/22 00:54:23;;;;;;;8.80;4.20;;;;;;;16.33;31.23;98000.51;105862;1253;63913;-55
2023/12/22 00:56:50;;;;;;;9.80;4.70;;;;;;;16.33;31.29;97994.71;105244;1259;61548;-52
2023/12/22 00:59:18;;;;;;;10.00;3.90;;;;;;;16.30;31.28;97987.26;105343;1253;63686;-53
2023/12/22 01:01:45;;;;;;;8.90;4.40;;;;;;;16.28;31.26;97982.22;105450;1254;60562;-56
2023/12/22 01:04:13;;;;;;;10.20;4.10;;;;;;;16.28;31.31;97975.89;105332;1257;60643;-55
2023/12/22 01:06:41;;;;;;;9.60;3.90;;;;;;;16.24;31.35;97967.36;105273;1253;64887;-54
2023/12/22 01:09:09;;;;;;;10.90;4.60;;;;;;;16.21;31.38;97956.56;105276;1256;61593;-54
2023/12/22 01:11:36;;;;;;;12.10;5.40;;;;;;;16.21;31.41;97948.01;105616;1260;62485;-54
2023/12/22 01:14:04;;;;;;;16.40;10.60;;;;;;;16.20;31.47;97941.20;105312;1255;60473;-54
2023/12/22 01:16:31;;;;;;;9.90;3.90;;;;;;;16.18;31.38;97940.30;105322;1254;60442;-53
2023/12/22 01:18:59;;;;;;;7.00;2.60;;;;;;;16.25;31.38;97929.42;105294;1258;64923;-53
2023/12/22 01:21:27;;;;;;;8.90;3.90;;;;;;;16.37;31.24;97929.23;105261;1256;61358;-54
2023/12/22 01:23:54;;;;;;;10.50;3.00;;;;;;;16.47;31.26;97925.59;105246;1253;62451;-52
2023/12/22 01:26:22;;;;;;;13.70;10.00;;;;;;;16.57;31.24;97923.61;105293;1256;61250;-54
2023/12/22 01:28:50;;;;;;;12.50;4.30;;;;;;;16.66;31.27;97919.55;106002;1253;60629;-53
2023/12/22 01:31:18;;;;;;;12.20;3.70;;;;;;;16.76;31.15;97918.20;105983;1254;65012;-52
2023/12/22 01:33:45;;;;;;;9.40;4.20;;;;;;;16.79;30.90;97909.61;105417;1254;61308;-64
2023/12/22 01:36:13;;;;;;;12.20;5.90;;;;;;;16.78;30.87;97903.42;105295;1254;63707;-52
2023/12/22 01:38:41;;;;;;;8.10;3.60;;;;;;;16.77;30.79;97898.34;105285;1254;60564;-54
2023/12/22 01:41:08;;;;;;;14.30;10.00;;;;;;;16.71;30.76;97891.30;105337;1257;60434;-54
2023/12/22 01:43:36;;;;;;;10.40;4.80;;;;;;;16.66;30.83;97889.27;105328;1253;63719;-57
2023/12/22 01:46:04;;;;;;;10.00;4.70;;;;;;;16.60;30.88;97887.15;105200;1255;62317;-54
2023/12/22 01:48:31;;;;;;;7.20;2.90;;;;;;;16.54;30.76;97889.42;105616;1256;62520;-53
2023/12/22 01:50:59;;;;;;;10.60;4.60;;;;;;;16.47;30.94;97894.11;105315;1258;60513;-54
2023/12/22 01:53:27;;;;;;;10.30;5.00;;;;;;;16.39;31.00;97892.95;105890;1258;60524;-54
2023/12/22 01:55:54;;;;;;;11.80;4.60;;;;;;;16.32;31.02;97888.44;105166;1260;64898;-55
2023/12/22 01:58:23;;;;;;;11.20;4.80;;;;;;;16.28;31.00;97883.02;105918;1257;61468;-53
2023/12/22 02:00:52;;;;;;;9.50;4.00;;;;;;;16.26;31.11;97875.52;105985;1253;64098;-54
2023/12/22 02:03:21;;;;;;;8.70;4.60;;;;;;;16.24;31.06;97867.85;106058;1253;60566;-54
2023/12/22 02:05:48;;;;;;;15.00;10.40;;;;;;;16.22;31.16;97866.75;105327;1253;61952;-54
2023/12/22 02:08:18;;;;;;;9.00;3.30;;;;;;;16.21;31.23;97858.98;105334;1253;65056;-54
2023/12/22 02:10:45;;;;;;;8.60;2.80;;;;;;;16.27;31.26;97851.48;105274;1254;61375;-56
2023/12/22 02:13:13;;;;;;;8.90;2.60;;;;;;;16.34;31.23;97849.39;105330;1256;63771;-54
2023/12/22 02:15:41;;;;;;;8.20;2.80;;;;;;;16.41;31.03;97842.77;105058;1261;60354;-54
2023/12/22 02:18:17;;;;;;;10.60;3.90;;;;;;;16.50;30.96;97839.40;105286;1254;60406;-54
2023/12/22 02:20:45;;;;;;;13.90;9.10;;;;;;;16.57;31.09;97832.21;105363;1257;63709;-55
2023/12/22 02:23:13;;;;;;;12.90;4.70;;;;;;;16.61;30.96;97830.65;105361;1253;61445;-55
2023/12/22 02:25:40;;;;;;;7.50;3.80;;;;;;;16.64;30.88;97823.08;105402;1259;63766;-53
2023/12/22 02:28:10;;;;;;;9.00;4.40;;;;;;;16.64;30.76;97821.43;105405;1260;60648;-53
2023/12/22 02:30:57;;;;;;;11.70;4.60;;;;;;;16.63;30.84;97822.19;105606;1258;60517;-56
2023/12/22 02:33:24;;;;;;;9.30;3.90;;;;;;;16.61;30.73;97822.04;105800;1258;64989;-56
2023/12/22 02:35:52;;;;;;;9.30;4.00;;;;;;;16.57;30.79;97821.60;105250;1256;61292;-55
2023/12/22 02:38:20;;;;;;;8.90;3.40;;;;;;;16.50;30.79;97822.75;105188;1256;63847;-55
2023/12/22 02:40:47;;;;;;;9.20;3.80;;;;;;;16.42;30.90;97821.70;105261;1253;60487;-56
2023/12/22 02:43:15;;;;;;;9.70;4.10;;;;;;;16.38;31.03;97814.41;105180;1256;60550;-55
2023/12/22 02:45:43;;;;;;;11.00;5.30;;;;;;;16.36;31.18;97816.64;105288;1256;63631;-55
2023/12/22 02:48:11;;;;;;;10.90;3.50;;;;;;;16.31;31.18;97811.13;105347;1261;60855;-56
2023/12/22 02:50:39;;;;;;;9.50;5.00;;;;;;;16.25;31.20;97804.02;105469;1256;62578;-54
2023/12/22 02:53:06;;;;;;;9.10;3.80;;;;;;;16.19;31.46;97799.77;105270;1256;60464;-54
2023/12/22 02:55:34;;;;;;;8.70;3.60;;;;;;;16.16;31.50;97794.70;105314;1253;60565;-54
2023/12/22 02:58:02;;;;;;;9.30;4.50;;;;;;;16.13;31.46;97796.25;105283;1253;65118;-54
2023/12/22 03:00:29;;;;;;;11.70;4.40;;;;;;;16.09;31.56;97797.56;105297;1258;60367;-55
2023/12/22 03:02:57;;;;;;;8.10;3.00;;;;;;;16.04;31.58;97790.85;105242;1256;63768;-54
2023/12/22 03:05:25;;;;;;;6.60;3.00;;;;;;;16.07;31.62;97792.31;105237;1256;60683;-53
2023/12/22 03:07:54;;;;;;;8.60;3.10;;;;;;;16.15;31.52;97790.52;105206;1256;60506;-52
2023/12/22 03:10:21;;;;;;;9.30;3.80;;;;;;;16.23;31.50;97792.49;105294;1254;63685;-56
2023/12/22 03:12:49;;;;;;;11.10;3.80;;;;;;;16.28;31.36;97797.52;105189;1258;60510;-55
2023/12/22 03:15:17;;;;;;;9.70;3.70;;;;;;;16.30;31.32;97797.46;105284;1258;64937;-54
2023/12/22 03:17:44;;;;;;;9.90;4.10;;;;;;;16.35;31.42;97793.98;105317;1257;60502;-55
2023/12/22 03:20:12;;;;;;;10.40;3.30;;;;;;;16.43;31.18;97789.39;105314;1258;60474;-54
2023/12/22 03:22:40;;;;;;;9.10;4.00;;;;;;;16.58;31.17;97780.38;105231;1258;65116;-55
2023/12/22 03:25:08;;;;;;;11.00;3.50;;;;;;;16.59;31.12;97783.06;105317;1259;61788;-55
2023/12/22 03:27:35;;;;;;;10.30;4.90;;;;;;;16.44;31.09;97782.93;105294;1255;63736;-54
2023/12/22 03:30:03;;;;;;;7.30;3.80;;;;;;;16.40;31.11;97780.61;105297;1256;60568;-52
2023/12/22 03:32:31;;;;;;;8.80;3.70;;;;;;;16.39;31.21;97775.16;105698;1259;60382;-54
2023/12/22 03:34:59;;;;;;;8.50;3.90;;;;;;;16.34;31.25;97772.70;105273;1256;64006;-53
2023/12/22 03:37:27;;;;;;;7.80;3.80;;;;;;;16.30;31.28;97769.02;105154;1253;62077;-54
2023/12/22 03:39:54;;;;;;;8.30;3.30;;;;;;;16.28;31.42;97765.38;105767;1256;62489;-56
2023/12/22 03:42:22;;;;;;;10.30;5.20;;;;;;;16.23;31.35;97762.30;105188;1258;60574;-57
2023/12/22 03:44:50;;;;;;;8.70;4.70;;;;;;;16.16;31.29;97762.38;105309;1253;59229;-56
2023/12/22 03:47:17;;;;;;;9.00;3.90;;;;;;;16.09;31.47;97758.80;105307;1253;63625;-54
2023/12/22 03:49:45;;;;;;;10.10;4.30;;;;;;;16.06;31.60;97756.34;105235;1261;60427;-56
2023/12/22 03:52:14;;;;;;;12.50;4.40;;;;;;;16.03;31.57;97751.48;105409;1259;62531;-53
2023/12/22 03:54:42;;;;;;;6.30;2.40;;;;;;;16.06;31.62;97748.84;105315;1253;60397;-54
2023/12/22 03:57:09;;;;;;;9.60;4.00;;;;;;;16.15;31.49;97748.88;105339;1258;60412;-52
2023/12/22 03:59:37;;;;;;;12.30;8.60;;;;;;;16.25;31.45;97744.67;105241;1253;64978;-51
2023/12/22 04:02:04;;;;;;;10.30;4.20;;;;;;;16.33;31.45;97738.86;105280;1258;61407;-55
2023/12/22 04:04:32;;;;;;;17.00;5.60;;;;;;;16.39;31.47;97738.00;105175;1256;64631;-54
2023/12/22 04:07:00;;;;;;;8.70;4.00;;;;;;;16.44;31.24;97736.11;105283;1258;60461;-55
2023/12/22 04:09:27;;;;;;;13.90;6.30;;;;;;;16.46;31.26;97734.69;105294;1253;60664;-55
2023/12/22 04:11:55;;;;;;;7.20;4.00;;;;;;;16.47;31.21;97738.37;105321;1253;65103;-58
2023/12/22 04:14:22;;;;;;;8.60;4.00;;;;;;;16.40;31.05;97758.35;105320;1258;60427;-55
2023/12/22 04:16:52;;;;;;;12.90;9.10;;;;;;;16.31;31.09;97761.61;105237;1256;64312;-55
2023/12/22 04:19:21;;;;;;;8.60;3.20;;;;;;;16.27;31.23;97754.25;105930;1256;60589;-55
2023/12/22 04:21:49;;;;;;;9.10;2.90;;;;;;;16.27;31.12;97753.34;105268;1258;60366;-57
2023/12/22 04:24:16;;;;;;;9.80;4.20;;;;;;;16.23;31.13;97746.39;105420;1257;65487;-56
2023/12/22 04:26:44;;;;;;;10.50;4.30;;;;;;;16.15;31.19;97743.30;105309;1258;60534;-52
2023/12/22 04:29:11;;;;;;;8.70;3.40;;;;;;;16.12;31.24;97740.63;105289;1254;64261;-56
2023/12/22 04:31:39;;;;;;;15.20;9.70;;;;;;;16.11;31.23;97743.20;105141;1253;60525;-54
2023/12/22 04:34:07;;;;;;;8.80;3.70;;;;;;;16.10;31.36;97744.04;104968;1253;60627;-54
2023/12/22 04:36:35;;;;;;;6.70;3.10;;;;;;;16.16;31.22;97741.86;105121;1253;64929;-57
2023/12/22 04:39:03;;;;;;;8.90;2.80;;;;;;;16.26;31.12;97744.14;105421;1253;61343;-54
2023/12/22 04:41:30;;;;;;;7.30;3.00;;;;;;;16.33;31.09;97744.81;105080;1254;63853;-53
2023/12/22 04:43:58;;;;;;;9.00;4.10;;;;;;;16.43;30.99;97741.79;105062;1256;60569;-54
2023/12/22 04:46:26;;;;;;;7.30;3.20;;;;;;;16.47;30.87;97738.54;105056;1258;60452;-52
2023/12/22 04:48:53;;;;;;;7.40;3.30;;;;;;;16.47;30.86;97741.19;105089;1253;64941;-53
2023/12/22 04:51:21;;;;;;;9.10;3.40;;;;;;;16.47;30.84;97739.11;105188;1258;60397;-53
2023/12/22 04:53:49;;;;;;;14.80;9.60;;;;;;;16.46;30.80;97735.05;105251;1253;62798;-55
2023/12/22 04:56:17;;;;;;;11.00;4.50;;;;;;;16.44;30.89;97738.83;105360;1257;61099;-55
2023/12/22 04:58:44;;;;;;;11.90;5.40;;;;;;;16.44;30.92;97734.66;105147;1261;60375;-53
2023/12/22 05:01:12;;;;;;;11.00;4.40;;;;;;;16.42;30.92;97729.34;105264;1253;63637;-50
2023/12/22 05:03:40;;;;;;;11.60;4.20;;;;;;;16.42;30.89;97724.69;105287;1258;61497;-54
2023/12/22 05:06:08;;;;;;;16.80;11.60;;;;;;;16.39;30.96;97718.40;105344;1257;62572;-53
2023/12/22 05:08:36;;;;;;;8.40;3.90;;;;;;;16.35;30.88;97706.54;105310;1254;60461;-55
2023/12/22 05:11:03;;;;;;;19.90;9.30;;;;;;;16.28;30.98;97703.17;105230;1254;60365;-54
2023/12/22 05:13:31;;;;;;;10.40;4.60;;;;;;;16.24;31.15;97704.77;105354;1254;63785;-53
2023/12/22 05:15:59;;;;;;;29.00;15.20;;;;;;;16.20;31.17;97704.06;105161;1258;60459;-53
2023/12/22 05:18:26;;;;;;;32.10;23.70;;;;;;;16.15;31.25;97709.63;105231;1256;63676;-55
2023/12/22 05:20:54;;;;;;;12.20;5.60;;;;;;;16.12;31.34;97711.02;105758;1253;60445;-54
2023/12/22 05:23:22;;;;;;;8.20;3.20;;;;;;;16.16;31.41;97710.59;105900;1258;60622;-54
2023/12/22 05:25:49;;;;;;;8.00;3.70;;;;;;;16.13;31.55;97718.79;105210;1253;63672;-53
2023/12/22 05:28:17;;;;;;;11.50;5.10;;;;;;;16.17;31.46;97735.84;105278;1259;60444;-54
2023/12/22 05:30:45;;;;;;;16.20;6.00;;;;;;;16.20;31.47;97727.88;105367;1259;62447;-54
2023/12/22 05:33:12;;;;;;;12.10;6.60;;;;;;;16.18;31.56;97725.13;105256;1258;60486;-53
2023/12/22 05:35:40;;;;;;;9.40;4.40;;;;;;;16.16;31.60;97718.26;105257;1253;60593;-55
2023/12/22 05:38:08;;;;;;;15.20;9.70;;;;;;;16.13;31.69;97710.73;105624;1258;64907;-56
2023/12/22 05:40:36;;;;;;;8.30;4.50;;;;;;;16.08;31.75;97700.79;105288;1255;60531;-55
2023/12/22 05:43:03;;;;;;;11.90;4.30;;;;;;;16.07;31.94;97702.29;105248;1256;63791;-55
2023/12/22 05:45:31;;;;;;;9.00;3.40;;;;;;;16.07;32.06;97696.34;105330;1253;60540;-55
2023/12/22 05:47:59;;;;;;;10.40;3.90;;;;;;;16.04;32.27;97689.64;105434;1253;60485;-55
2023/12/22 05:50:27;;;;;;;10.10;4.30;;;;;;;16.05;32.34;97692.58;106602;1253;66246;-56
2023/12/22 05:52:55;;;;;;;16.00;10.90;;;;;;;16.03;32.44;97694.80;105366;1258;60388;-56
2023/12/22 05:55:22;;;;;;;10.90;4.00;;;;;;;16.01;32.53;97690.94;105907;1256;63692;-55
2023/12/22 05:57:50;;;;;;;7.40;3.50;;;;;;;16.07;32.56;97692.23;105209;1256;60489;-58
2023/12/22 06:00:18;;;;;;;7.50;3.00;;;;;;;16.17;32.50;97708.86;105338;1254;60754;-54
2023/12/22 06:02:46;;;;;;;10.40;4.20;;;;;;;16.25;32.43;97719.37;105298;1253;64949;-55
2023/12/22 06:05:14;;;;;;;8.90;4.40;;;;;;;16.31;32.46;97711.52;105233;1253;62333;-53
2023/12/22 06:07:41;;;;;;;10.30;4.80;;;;;;;16.37;32.44;97711.56;105344;1256;63753;-51
2023/12/22 06:10:09;;;;;;;16.80;11.20;;;;;;;16.39;32.44;97709.17;105282;1259;60557;-55
2023/12/22 06:12:37;;;;;;;10.50;4.30;;;;;;;16.42;32.37;97707.71;106213;1254;60550;-54
2023/12/22 06:15:06;;;;;;;11.60;5.30;;;;;;;16.42;32.43;97703.09;105399;1259;65420;-55
2023/12/22 06:17:33;;;;;;;8.50;5.20;;;;;;;16.41;32.52;97698.77;105390;1254;61664;-55
2023/12/22 06:20:01;;;;;;;10.50;5.00;;;;;;;16.39;32.72;97693.42;105656;1256;63791;-54
2023/12/22 06:22:29;;;;;;;10.10;4.20;;;;;;;16.36;32.66;97687.30;105759;1253;60367;-56
2023/12/22 06:24:57;;;;;;;9.90;4.80;;;;;;;16.29;32.68;97685.69;105266;1253;60561;-56
2023/12/22 06:27:25;;;;;;;11.90;5.70;;;;;;;16.22;32.85;97686.67;105317;1258;65343;-56
2023/12/22 06:29:52;;;;;;;17.70;11.70;;;;;;;16.15;32.93;97686.43;105299;1254;62313;-53
2023/12/22 06:32:20;;;;;;;8.50;4.40;;;;;;;16.10;33.13;97685.13;105181;1256;63738;-51
2023/12/22 06:34:48;;;;;;;6.50;2.80;;;;;;;16.12;33.18;97681.11;105044;1258;60458;-55
2023/12/22 06:37:16;;;;;;;8.50;3.30;;;;;;;16.18;33.25;97673.63;105346;1253;60532;-58
2023/12/22 06:39:44;;;;;;;7.50;3.50;;;;;;;16.26;33.32;97672.75;105243;1254;65496;-58
2023/12/22 06:42:12;;;;;;;10.20;3.60;;;;;;;16.35;33.30;97665.30;105193;1253;61359;-58
2023/12/22 06:44:45;;;;;;;12.00;3.50;;;;;;;16.45;33.28;97663.52;105141;1254;63792;-57
2023/12/22 06:47:13;;;;;;;12.20;4.00;;;;;;;16.52;33.29;97663.91;105093;1260;60547;-59
2023/12/22 06:49:41;;;;;;;18.10;11.30;;;;;;;16.54;33.21;97662.05;105116;1258;60368;-56
2023/12/22 06:52:09;;;;;;;13.00;5.20;;;;;;;16.56;33.18;97653.48;109105;1253;64913;-59
2023/12/22 06:54:36;;;;;;;10.00;4.70;;;;;;;16.57;33.29;97649.80;109076;1258;60227;-58
2023/12/22 06:57:04;;;;;;;10.00;5.20;;;;;;;16.55;33.20;97650.02;107243;1254;62527;-58
2023/12/22 06:59:33;;;;;;;10.20;4.40;;;;;;;16.50;33.20;97647.20;105568;1253;60512;-59
2023/12/22 07:02:02;;;;;;;17.20;12.00;;;;;;;16.43;33.20;97644.64;105264;1256;60432;-58
2023/12/22 07:05:23;;;;;;;11.10;3.90;;;;;;;16.35;33.37;97643.42;105317;1253;65042;-58
2023/12/22 07:07:50;;;;;;;9.10;3.90;;;;;;;16.36;33.39;97637.89;105307;1265;60451;-57
2023/12/22 07:10:19;;;;;;;8.60;3.10;;;;;;;16.38;33.37;97634.16;104838;1263;63791;-58
2023/12/22 07:12:46;;;;;;;11.30;3.00;;;;;;;16.38;33.52;97635.02;104988;1254;61689;-58
2023/12/22 07:15:14;;;;;;;11.50;4.60;;;;;;;16.41;33.62;97633.33;105294;1254;59549;-58
2023/12/22 07:17:42;;;;;;;11.90;5.30;;;;;;;16.41;33.65;97636.41;105292;1256;63692;-58
2023/12/22 07:20:10;;;;;;;8.40;4.90;;;;;;;16.40;33.73;97634.33;105522;1259;60420;-58
2023/12/22 07:22:38;;;;;;;12.80;4.90;;;;;;;16.35;33.86;97631.50;105475;1253;62559;-60
2023/12/22 07:25:08;;;;;;;10.80;5.60;;;;;;;16.33;33.91;97626.23;105543;1258;60542;-57
2023/12/22 07:27:35;;;;;;;12.60;5.40;;;;;;;16.32;34.07;97625.54;105539;1258;60540;-58
2023/12/22 07:30:04;;;;;;;12.50;6.20;;;;;;;16.29;34.06;97618.50;105302;1259;65554;-57
2023/12/22 07:32:33;;;;;;;9.50;4.50;;;;;;;16.23;34.15;97618.61;105663;1253;61546;-58
2023/12/22 07:35:01;;;;;;;9.70;4.20;;;;;;;16.20;34.30;97617.52;105351;1257;63731;-58
2023/12/22 07:37:29;;;;;;;12.00;6.30;;;;;;;16.14;34.35;97617.64;105254;1255;61361;-57
2023/12/22 07:39:56;;;;;;;12.10;5.20;;;;;;;16.10;34.48;97613.09;105229;1254;60619;-57
2023/12/22 07:42:25;;;;;;;14.70;4.80;;;;;;;16.17;34.53;97609.77;105631;1253;65103;-58
2023/12/22 07:44:55;;;;;;;11.80;4.20;;;;;;;16.23;34.57;97607.44;105285;1259;61507;-58
2023/12/22 07:47:22;;;;;;;11.30;4.90;;;;;;;16.28;34.41;97599.70;105179;1259;71766;-58
2023/12/22 07:49:50;;;;;;;10.20;4.30;;;;;;;16.34;34.51;97601.11;105215;1256;60516;-57
2023/12/22 07:52:18;;;;;;;16.40;5.90;;;;;;;16.42;34.50;97600.13;105423;1258;60569;-57
2023/12/22 07:54:47;;;;;;;11.30;5.70;;;;;;;16.44;34.66;97594.67;105310;1253;63729;-57
2023/12/22 07:57:16;;;;;;;14.60;7.80;;;;;;;16.42;34.64;97589.35;105411;1258;60455;-58
2023/12/22 07:59:43;;;;;;;12.30;4.60;;;;;;;16.39;34.61;97587.39;105305;1257;63939;-54
2023/12/22 08:02:11;;;;;;;18.40;7.60;;;;;;;16.34;34.60;97584.20;105223;1259;60457;-54
2023/12/22 08:04:39;;;;;;;13.10;6.40;;;;;;;16.26;34.60;97583.23;105437;1259;268181;-55
2023/12/22 08:08:26;;;;;;;16.80;6.70;;;;;;;14.12;38.60;97590.91;102135;1294;601364;-54
2023/12/22 08:10:54;;;;;;;17.20;7.00;;;;;;;15.84;35.36;97591.13;104378;1269;59515;-54
2023/12/22 08:13:22;;;;;;;10.40;4.00;;;;;;;16.12;35.15;97583.97;105111;1269;59290;-55
2023/12/22 08:15:50;;;;;;;16.60;5.10;;;;;;;16.22;35.18;97578.23;104442;1266;62079;-53
2023/12/22 08:18:18;;;;;;;13.30;5.30;;;;;;;16.35;35.17;97570.98;104724;1268;60451;-54
2023/12/22 08:20:48;;;;;;;10.30;4.60;;;;;;;16.46;35.03;97573.63;104621;1268;62522;-55
2023/12/22 08:23:16;;;;;;;16.00;6.00;;;;;;;16.48;34.91;97570.63;104696;1262;202817;-55
2023/12/22 08:25:45;;;;;;;11.90;5.30;;;;;;;16.48;34.70;97567.84;104907;1262;61794;-54
2023/12/22 08:28:13;;;;;;;18.60;12.60;;;;;;;16.45;34.72;97565.69;104800;1267;63274;-54
2023/12/22 08:30:41;;;;;;;11.70;6.60;;;;;;;16.42;34.84;97559.20;104657;1267;61467;-55
2023/12/22 08:33:09;;;;;;;15.50;7.70;;;;;;;16.46;34.79;97553.36;104505;1262;63772;-55
2023/12/22 08:35:37;;;;;;;11.50;4.90;;;;;;;16.43;34.66;97549.16;104509;1270;59768;-52
2023/12/22 08:38:05;;;;;;;11.30;4.90;;;;;;;16.40;34.70;97544.58;105787;1263;59650;-54
2023/12/22 08:40:32;;;;;;;13.00;5.00;;;;;;;16.43;34.75;97534.77;104677;1262;62920;-54
2023/12/22 08:43:01;;;;;;;11.00;5.70;;;;;;;16.50;34.74;97525.11;104466;1262;70366;-53
2023/12/22 08:45:28;;;;;;;9.00;5.10;;;;;;;16.60;34.65;97516.09;105283;1262;64183;-54
2023/12/22 08:47:57;;;;;;;12.30;5.60;;;;;;;16.68;34.67;97515.31;105304;1268;59805;-55
2023/12/22 08:50:25;;;;;;;10.30;4.60;;;;;;;16.67;34.51;97511.30;105331;1263;59589;-55
2023/12/22 08:52:53;;;;;;;17.70;11.20;;;;;;;16.59;34.70;97504.70;105481;1260;62880;-54
2023/12/22 08:55:21;;;;;;;12.00;6.70;;;;;;;16.57;34.61;97503.27;105456;1262;61387;-55
2023/12/22 08:57:48;;;;;;;18.60;12.50;;;;;;;16.55;34.69;97501.33;104766;1267;62560;-55
2023/12/22 09:00:26;;;;;;;19.60;11.40;;;;;;;16.54;34.63;97502.95;104831;1264;59808;-55
2023/12/22 09:02:54;;;;;;;13.90;7.40;;;;;;;16.51;34.54;97515.16;105247;1267;59581;-56
2023/12/22 09:05:22;;;;;;;17.10;9.00;;;;;;;16.42;34.44;97516.75;105346;1262;65098;-55
2023/12/22 09:07:51;;;;;;;11.60;5.60;;;;;;;16.35;34.50;97513.10;104684;1262;61367;-55
2023/12/22 09:10:19;;;;;;;10.10;6.30;;;;;;;16.36;34.44;97514.97;104727;1264;62606;-55
2023/12/22 09:12:47;;;;;;;17.00;8.90;;;;;;;16.36;34.53;97519.64;104745;1267;59706;-57
2023/12/22 09:15:16;;;;;;;13.60;6.80;;;;;;;16.31;34.50;97521.02;104490;1262;59715;-54
2023/12/22 09:17:44;;;;;;;12.70;5.70;;;;;;;16.27;34.58;97519.75;104761;1267;66322;-55
2023/12/22 09:20:12;;;;;;;11.80;4.90;;;;;;;16.24;34.63;97519.52;104844;1262;61495;-54
2023/12/22 09:22:39;;;;;;;21.20;12.00;;;;;;;16.20;34.72;97509.36;104757;1262;63887;-55
2023/12/22 09:25:08;;;;;;;10.20;3.90;;;;;;;16.17;34.72;97506.73;104907;1265;59756;-54
2023/12/22 09:27:36;;;;;;;9.70;4.50;;;;;;;16.12;34.64;97505.70;104857;1262;59728;-58
2023/12/22 09:30:06;;;;;;;11.10;5.20;;;;;;;16.07;34.45;97502.80;105086;1262;63702;-55
2023/12/22 09:32:34;;;;;;;11.30;3.80;;;;;;;16.09;34.48;97503.30;104599;1262;61843;-56
2023/12/22 09:35:03;;;;;;;12.80;4.60;;;;;;;16.14;34.52;97501.38;104625;1263;63801;-59
2023/12/22 09:37:31;;;;;;;25.60;18.50;;;;;;;16.17;34.44;97506.73;105112;1262;59668;-54
2023/12/22 09:40:00;;;;;;;10.50;4.10;;;;;;;16.15;34.59;97506.42;105336;1262;62318;-52
2023/12/22 09:42:27;;;;;;;16.00;7.10;;;;;;;16.12;34.56;97508.54;104784;1262;62883;-53
2023/12/22 09:44:57;;;;;;;11.00;5.70;;;;;;;16.15;34.52;97508.39;104719;1265;60462;-52
2023/12/22 09:47:25;;;;;;;12.80;4.90;;;;;;;16.12;34.44;97508.11;104555;1263;63748;-54
2023/12/22 09:49:53;;;;;;;12.40;7.20;;;;;;;16.06;34.54;97504.95;105320;1268;59692;-57
2023/12/22 09:52:20;;;;;;;14.80;7.10;;;;;;;16.01;34.61;97503.95;104684;1262;59715;-51
2023/12/22 09:54:48;;;;;;;19.10;7.90;;;;;;;16.06;34.60;97509.17;104715;1267;75226;-54
2023/12/22 09:57:16;;;;;;;12.00;5.50;;;;;;;16.16;34.41;97498.70;104704;1265;72637;-56
2023/12/22 09:59:54;;;;;;;11.00;5.50;;;;;;;16.22;34.48;97496.43;105143;1262;62452;-59
2023/12/22 10:02:23;;;;;;;10.50;4.90;;;;;;;16.31;34.52;97496.77;104556;1262;63028;-56
2023/12/22 10:04:51;;;;;;;15.20;5.40;;;;;;;16.29;34.40;97494.33;104799;1262;59702;-61
2023/12/22 10:07:19;;;;;;;19.40;13.50;;;;;;;16.23;34.35;97496.27;105680;1263;63273;-60
2023/12/22 10:09:47;;;;;;;9.80;5.10;;;;;;;16.15;34.38;97493.86;104710;1262;61317;-59
2023/12/22 10:12:15;;;;;;;14.10;5.80;;;;;;;16.09;34.44;97493.30;104808;1267;65930;-61
2023/12/22 10:14:42;;;;;;;17.10;13.10;;;;;;;16.06;34.43;97494.38;104724;1267;59702;-63
2023/12/22 10:17:10;;;;;;;10.20;5.00;;;;;;;16.01;34.58;97492.50;104788;1262;59673;-60
2023/12/22 10:19:39;;;;;;;8.70;4.50;;;;;;;16.01;34.51;97482.86;104602;1265;74085;-61
2023/12/22 10:22:07;;;;;;;8.70;4.30;;;;;;;16.05;34.38;97483.73;104766;1266;72121;-60
2023/12/22 10:24:47;;;;;;;10.10;4.20;;;;;;;16.09;34.47;97484.64;104729;1267;64236;-58
2023/12/22 10:27:21;;;;;;;12.10;6.10;;;;;;;16.13;34.59;97483.48;104863;1265;61977;-59
2023/12/22 10:29:58;;;;;;;11.70;5.80;;;;;;;16.17;34.62;97477.66;104723;1266;59807;-61
2023/12/22 10:32:26;;;;;;;16.70;12.10;;;;;;;16.13;34.56;97471.31;104642;1264;64141;-60
2023/12/22 10:34:55;;;;;;;12.10;4.60;;;;;;;16.07;34.69;97469.46;105127;1262;60128;-60
2023/12/22 10:37:23;;;;;;;9.20;4.10;;;;;;;16.03;34.81;97466.02;104756;1266;65095;-60
2023/12/22 10:39:54;;;;;;;9.30;4.30;;;;;;;15.97;34.98;97463.14;105367;1264;59667;-63
2023/12/22 10:42:22;;;;;;;10.00;4.70;;;;;;;15.95;34.83;97461.67;104765;1266;59573;-59
2023/12/22 10:44:49;;;;;;;10.90;4.90;;;;;;;15.99;34.78;97461.77;104553;1263;64172;-60
2023/12/22 10:47:21;;;;;;;11.40;5.00;;;;;;;16.05;34.70;97459.83;104736;1268;60409;-58
2023/12/22 10:49:49;;;;;;;9.30;4.00;;;;;;;16.07;34.83;97458.81;104929;1261;62854;-59
2023/12/22 10:52:18;;;;;;;9.80;4.70;;;;;;;16.06;34.82;97449.41;104887;1265;60538;-61
2023/12/22 10:54:45;;;;;;;10.90;5.20;;;;;;;16.05;34.79;97443.11;104991;1259;59573;-63
2023/12/22 10:57:13;;;;;;;18.40;12.50;;;;;;;16.05;34.83;97443.27;104859;1259;63036;-59
2023/12/22 10:59:47;;;;;;;14.70;4.30;;;;;;;16.06;34.96;97444.71;104860;1262;61574;-59
2023/12/22 11:02:27;;;;;;;12.90;5.20;;;;;;;16.20;34.85;97438.23;104831;1264;74744;-58
2023/12/22 11:04:58;;;;;;;10.50;3.70;;;;;;;16.28;34.64;97438.20;105401;1259;59578;-57
2023/12/22 11:07:26;;;;;;;10.50;5.00;;;;;;;16.29;34.51;97440.56;105498;1259;59781;-57
2023/12/22 11:09:56;;;;;;;10.30;4.80;;;;;;;16.33;34.70;97436.09;104701;1259;74883;-57
2023/12/22 11:12:24;;;;;;;17.60;13.30;;;;;;;16.42;34.61;97433.59;105434;1263;61239;-56
2023/12/22 11:14:52;;;;;;;9.10;3.90;;;;;;;16.46;34.49;97433.19;104849;1260;75286;-57
2023/12/22 11:17:20;;;;;;;12.80;5.70;;;;;;;16.52;34.20;97435.23;105350;1266;59754;-56
2023/12/22 11:19:53;;;;;;;9.90;4.20;;;;;;;16.52;34.26;97432.42;105422;1262;62116;-58
2023/12/22 11:22:21;;;;;;;11.00;4.60;;;;;;;16.52;34.39;97425.63;105541;1263;64571;-56
2023/12/22 11:24:49;;;;;;;9.80;3.70;;;;;;;16.52;34.20;97419.46;105538;1264;60254;-58